sensor_id;sensor_type;location;lat;lon;timestamp;P1;durP1;ratioP1;P2;durP2;ratioP2
61336;SDS011;47212;41.326;2.104;2023-05-10T00:01:40;4.55;;;1.65;;
61336;SDS011;47212;41.326;2.104;2023-05-10T00:06:44;4.32;;;1.30;;
61336;SDS011;47212;41.326;2.104;2023-05-10T00:11:46;2.55;;;1.40;;
61336;SDS011;47212;41.326;2.104;2023-05-10T00:16:49;3.13;;;1.50;;
61336;SDS011;47212;41.326;2.104;2023-05-10T00:21:51;3.75;;;1.45;;
61336;SDS011;47212;41.326;2.104;2023-05-10T00:26:53;3.35;;;1.65;;
61336;SDS011;47212;41.326;2.104;2023-05-10T00:31:55;2.42;;;1.33;;
61336;SDS011;47212;41.326;2.104;2023-05-10T00:36:57;4.57;;;1.65;;
61336;SDS011;47212;41.326;2.104;2023-05-10T00:42:03;5.28;;;1.55;;
61336;SDS011;47212;41.326;2.104;2023-05-10T00:47:06;1.15;;;1.00;;
61336;SDS011;47212;41.326;2.104;2023-05-10T00:52:09;4.25;;;1.38;;
61336;SDS011;47212;41.326;2.104;2023-05-10T00:57:11;2.88;;;1.38;;
61336;SDS011;47212;41.326;2.104;2023-05-10T01:05:11;5.53;;;1.50;;
61336;SDS011;47212;41.326;2.104;2023-05-10T01:10:14;4.82;;;1.63;;
61336;SDS011;47212;41.326;2.104;2023-05-10T01:15:16;5.53;;;1.85;;
61336;SDS011;47212;41.326;2.104;2023-05-10T01:36:32;4.82;;;2.70;;
61336;SDS011;47212;41.326;2.104;2023-05-10T01:52:15;3.30;;;2.25;;
61336;SDS011;47212;41.326;2.104;2023-05-10T01:57:24;4.60;;;2.90;;
61336;SDS011;47212;41.326;2.104;2023-05-10T02:02:32;7.32;;;3.40;;
61336;SDS011;47212;41.326;2.104;2023-05-10T02:07:41;6.60;;;3.67;;
61336;SDS011;47212;41.326;2.104;2023-05-10T02:12:45;7.53;;;4.32;;
61336;SDS011;47212;41.326;2.104;2023-05-10T02:17:50;7.03;;;3.30;;
61336;SDS011;47212;41.326;2.104;2023-05-10T02:22:57;5.45;;;2.95;;
61336;SDS011;47212;41.326;2.104;2023-05-10T02:28:02;5.85;;;2.97;;
61336;SDS011;47212;41.326;2.104;2023-05-10T02:33:06;5.25;;;3.30;;
61336;SDS011;47212;41.326;2.104;2023-05-10T02:38:09;4.90;;;2.70;;
61336;SDS011;47212;41.326;2.104;2023-05-10T02:43:14;5.13;;;2.70;;
61336;SDS011;47212;41.326;2.104;2023-05-10T02:48:17;6.10;;;3.03;;
61336;SDS011;47212;41.326;2.104;2023-05-10T02:53:21;7.30;;;2.72;;
61336;SDS011;47212;41.326;2.104;2023-05-10T02:58:25;3.97;;;2.00;;
61336;SDS011;47212;41.326;2.104;2023-05-10T03:03:28;4.32;;;2.72;;
61336;SDS011;47212;41.326;2.104;2023-05-10T03:08:30;5.72;;;2.63;;
61336;SDS011;47212;41.326;2.104;2023-05-10T03:13:37;5.72;;;2.83;;
61336;SDS011;47212;41.326;2.104;2023-05-10T03:18:50;5.72;;;3.03;;
61336;SDS011;47212;41.326;2.104;2023-05-10T03:24:06;5.15;;;2.58;;
61336;SDS011;47212;41.326;2.104;2023-05-10T03:29:11;4.78;;;2.38;;
61336;SDS011;47212;41.326;2.104;2023-05-10T03:34:15;5.57;;;3.00;;
61336;SDS011;47212;41.326;2.104;2023-05-10T03:39:18;5.80;;;2.55;;
61336;SDS011;47212;41.326;2.104;2023-05-10T03:44:27;6.03;;;2.63;;
61336;SDS011;47212;41.326;2.104;2023-05-10T03:49:29;5.38;;;2.55;;
61336;SDS011;47212;41.326;2.104;2023-05-10T03:54:32;4.50;;;2.72;;
61336;SDS011;47212;41.326;2.104;2023-05-10T03:59:34;6.47;;;3.03;;
61336;SDS011;47212;41.326;2.104;2023-05-10T04:04:36;6.32;;;3.20;;
61336;SDS011;47212;41.326;2.104;2023-05-10T04:09:40;5.20;;;2.70;;
61336;SDS011;47212;41.326;2.104;2023-05-10T04:16:18;4.95;;;2.40;;
61336;SDS011;47212;41.326;2.104;2023-05-10T04:21:20;5.20;;;2.45;;
61336;SDS011;47212;41.326;2.104;2023-05-10T04:26:23;5.05;;;2.53;;
61336;SDS011;47212;41.326;2.104;2023-05-10T04:32:45;4.57;;;1.70;;
61336;SDS011;47212;41.326;2.104;2023-05-10T04:37:47;4.68;;;1.65;;
61336;SDS011;47212;41.326;2.104;2023-05-10T04:42:52;7.45;;;2.28;;
61336;SDS011;47212;41.326;2.104;2023-05-10T04:47:54;5.38;;;2.00;;
61336;SDS011;47212;41.326;2.104;2023-05-10T04:52:56;4.03;;;1.75;;
61336;SDS011;47212;41.326;2.104;2023-05-10T04:57:58;3.40;;;1.45;;
61336;SDS011;47212;41.326;2.104;2023-05-10T05:03:00;4.43;;;1.80;;
61336;SDS011;47212;41.326;2.104;2023-05-10T05:08:03;4.03;;;1.67;;
61336;SDS011;47212;41.326;2.104;2023-05-10T05:13:05;2.50;;;1.30;;
61336;SDS011;47212;41.326;2.104;2023-05-10T05:18:07;7.50;;;1.70;;
61336;SDS011;47212;41.326;2.104;2023-05-10T05:23:10;5.13;;;1.77;;
61336;SDS011;47212;41.326;2.104;2023-05-10T05:28:11;3.38;;;1.67;;
61336;SDS011;47212;41.326;2.104;2023-05-10T05:38:16;4.18;;;1.50;;
61336;SDS011;47212;41.326;2.104;2023-05-10T05:43:19;3.58;;;1.50;;
61336;SDS011;47212;41.326;2.104;2023-05-10T05:48:21;4.40;;;1.50;;
61336;SDS011;47212;41.326;2.104;2023-05-10T05:53:23;3.63;;;1.42;;
61336;SDS011;47212;41.326;2.104;2023-05-10T05:58:25;4.32;;;1.60;;
61336;SDS011;47212;41.326;2.104;2023-05-10T06:03:27;3.85;;;1.42;;
61336;SDS011;47212;41.326;2.104;2023-05-10T06:08:29;2.92;;;1.50;;
61336;SDS011;47212;41.326;2.104;2023-05-10T06:18:35;3.28;;;1.50;;
61336;SDS011;47212;41.326;2.104;2023-05-10T06:23:37;1.67;;;1.15;;
61336;SDS011;47212;41.326;2.104;2023-05-10T06:28:39;4.57;;;1.80;;
61336;SDS011;47212;41.326;2.104;2023-05-10T06:33:42;6.63;;;1.55;;
61336;SDS011;47212;41.326;2.104;2023-05-10T06:38:44;5.32;;;1.65;;
61336;SDS011;47212;41.326;2.104;2023-05-10T06:43:46;3.17;;;1.50;;
61336;SDS011;47212;41.326;2.104;2023-05-10T06:48:48;4.80;;;1.50;;
61336;SDS011;47212;41.326;2.104;2023-05-10T06:53:50;4.75;;;1.80;;
61336;SDS011;47212;41.326;2.104;2023-05-10T06:58:52;2.83;;;1.23;;
61336;SDS011;47212;41.326;2.104;2023-05-10T07:03:54;7.45;;;1.60;;
61336;SDS011;47212;41.326;2.104;2023-05-10T07:08:57;2.33;;;1.20;;
61336;SDS011;47212;41.326;2.104;2023-05-10T07:13:59;5.63;;;1.80;;
61336;SDS011;47212;41.326;2.104;2023-05-10T07:22:44;3.03;;;1.70;;
61336;SDS011;47212;41.326;2.104;2023-05-10T07:28:15;3.45;;;1.70;;
61336;SDS011;47212;41.326;2.104;2023-05-10T07:33:17;4.22;;;1.50;;
61336;SDS011;47212;41.326;2.104;2023-05-10T07:38:20;4.03;;;1.67;;
61336;SDS011;47212;41.326;2.104;2023-05-10T07:43:22;1.52;;;1.15;;
61336;SDS011;47212;41.326;2.104;2023-05-10T07:48:24;5.35;;;1.75;;
61336;SDS011;47212;41.326;2.104;2023-05-10T07:53:26;5.75;;;1.60;;
61336;SDS011;47212;41.326;2.104;2023-05-10T07:58:29;6.38;;;1.83;;
61336;SDS011;47212;41.326;2.104;2023-05-10T08:03:31;7.90;;;1.88;;
61336;SDS011;47212;41.326;2.104;2023-05-10T08:08:33;4.72;;;2.13;;
61336;SDS011;47212;41.326;2.104;2023-05-10T08:13:35;2.70;;;1.45;;
61336;SDS011;47212;41.326;2.104;2023-05-10T08:18:38;5.15;;;1.40;;
61336;SDS011;47212;41.326;2.104;2023-05-10T08:23:41;2.83;;;1.60;;
61336;SDS011;47212;41.326;2.104;2023-05-10T08:28:50;2.67;;;1.45;;
61336;SDS011;47212;41.326;2.104;2023-05-10T08:33:52;2.40;;;1.50;;
61336;SDS011;47212;41.326;2.104;2023-05-10T08:38:54;7.10;;;1.73;;
61336;SDS011;47212;41.326;2.104;2023-05-10T08:43:56;3.67;;;1.73;;
61336;SDS011;47212;41.326;2.104;2023-05-10T08:48:59;4.13;;;1.73;;
61336;SDS011;47212;41.326;2.104;2023-05-10T08:54:10;5.63;;;2.13;;
61336;SDS011;47212;41.326;2.104;2023-05-10T08:59:12;2.45;;;1.33;;
61336;SDS011;47212;41.326;2.104;2023-05-10T09:04:15;5.68;;;1.88;;
61336;SDS011;47212;41.326;2.104;2023-05-10T09:09:18;3.67;;;1.70;;
61336;SDS011;47212;41.326;2.104;2023-05-10T09:14:23;4.18;;;2.00;;
61336;SDS011;47212;41.326;2.104;2023-05-10T09:19:27;8.10;;;2.33;;
61336;SDS011;47212;41.326;2.104;2023-05-10T09:24:29;5.82;;;2.15;;
61336;SDS011;47212;41.326;2.104;2023-05-10T09:29:39;7.57;;;2.13;;
61336;SDS011;47212;41.326;2.104;2023-05-10T09:34:43;5.30;;;2.00;;
61336;SDS011;47212;41.326;2.104;2023-05-10T09:39:46;4.28;;;2.05;;
61336;SDS011;47212;41.326;2.104;2023-05-10T09:44:48;7.82;;;2.47;;
61336;SDS011;47212;41.326;2.104;2023-05-10T09:49:50;9.45;;;3.13;;
61336;SDS011;47212;41.326;2.104;2023-05-10T09:54:54;4.65;;;2.67;;
61336;SDS011;47212;41.326;2.104;2023-05-10T09:59:56;4.88;;;2.63;;
61336;SDS011;47212;41.326;2.104;2023-05-10T10:05:02;7.38;;;3.22;;
61336;SDS011;47212;41.326;2.104;2023-05-10T10:10:05;7.57;;;3.45;;
61336;SDS011;47212;41.326;2.104;2023-05-10T10:15:13;7.53;;;3.15;;
61336;SDS011;47212;41.326;2.104;2023-05-10T10:20:18;7.03;;;3.20;;
61336;SDS011;47212;41.326;2.104;2023-05-10T10:25:21;7.63;;;4.20;;
61336;SDS011;47212;41.326;2.104;2023-05-10T10:35:38;9.55;;;3.30;;
61336;SDS011;47212;41.326;2.104;2023-05-10T10:40:41;13.55;;;3.83;;
61336;SDS011;47212;41.326;2.104;2023-05-10T10:51:16;6.28;;;3.53;;
61336;SDS011;47212;41.326;2.104;2023-05-10T10:56:18;6.30;;;3.35;;
61336;SDS011;47212;41.326;2.104;2023-05-10T11:01:25;6.75;;;2.70;;
61336;SDS011;47212;41.326;2.104;2023-05-10T11:06:35;7.65;;;2.42;;
61336;SDS011;47212;41.326;2.104;2023-05-10T11:11:58;7.32;;;2.70;;
61336;SDS011;47212;41.326;2.104;2023-05-10T11:17:23;8.35;;;2.63;;
61336;SDS011;47212;41.326;2.104;2023-05-10T11:22:50;7.90;;;2.35;;
61336;SDS011;47212;41.326;2.104;2023-05-10T11:33:21;17.10;;;4.35;;
61336;SDS011;47212;41.326;2.104;2023-05-10T11:38:23;15.70;;;3.65;;
61336;SDS011;47212;41.326;2.104;2023-05-10T11:43:25;12.50;;;3.15;;
61336;SDS011;47212;41.326;2.104;2023-05-10T11:48:32;14.23;;;4.00;;
61336;SDS011;47212;41.326;2.104;2023-05-10T11:53:34;16.95;;;3.70;;
61336;SDS011;47212;41.326;2.104;2023-05-10T11:58:37;13.05;;;3.42;;
61336;SDS011;47212;41.326;2.104;2023-05-10T12:03:40;20.27;;;4.25;;
61336;SDS011;47212;41.326;2.104;2023-05-10T12:08:46;14.95;;;2.83;;
61336;SDS011;47212;41.326;2.104;2023-05-10T12:13:49;11.00;;;3.25;;
61336;SDS011;47212;41.326;2.104;2023-05-10T12:18:53;10.45;;;3.20;;
61336;SDS011;47212;41.326;2.104;2023-05-10T12:23:59;11.10;;;3.47;;
61336;SDS011;47212;41.326;2.104;2023-05-10T12:39:42;10.32;;;3.13;;
61336;SDS011;47212;41.326;2.104;2023-05-10T12:49:48;10.35;;;2.65;;
61336;SDS011;47212;41.326;2.104;2023-05-10T12:54:51;14.73;;;3.25;;
61336;SDS011;47212;41.326;2.104;2023-05-10T12:59:54;14.38;;;2.70;;
61336;SDS011;47212;41.326;2.104;2023-05-10T13:04:56;9.32;;;2.65;;
61336;SDS011;47212;41.326;2.104;2023-05-10T13:09:58;11.05;;;3.22;;
61336;SDS011;47212;41.326;2.104;2023-05-10T13:15:01;7.00;;;2.55;;
61336;SDS011;47212;41.326;2.104;2023-05-10T13:20:04;13.32;;;3.15;;
61336;SDS011;47212;41.326;2.104;2023-05-10T13:25:07;11.23;;;2.83;;
61336;SDS011;47212;41.326;2.104;2023-05-10T13:30:10;14.57;;;3.42;;
61336;SDS011;47212;41.326;2.104;2023-05-10T13:35:13;9.68;;;3.08;;
61336;SDS011;47212;41.326;2.104;2023-05-10T13:40:15;15.18;;;3.72;;
61336;SDS011;47212;41.326;2.104;2023-05-10T13:45:17;10.85;;;2.92;;
61336;SDS011;47212;41.326;2.104;2023-05-10T13:50:19;13.35;;;3.05;;
61336;SDS011;47212;41.326;2.104;2023-05-10T13:55:22;9.65;;;3.05;;
61336;SDS011;47212;41.326;2.104;2023-05-10T14:00:24;11.32;;;3.10;;
61336;SDS011;47212;41.326;2.104;2023-05-10T14:05:30;13.07;;;3.28;;
61336;SDS011;47212;41.326;2.104;2023-05-10T14:10:32;14.10;;;3.90;;
61336;SDS011;47212;41.326;2.104;2023-05-10T14:15:34;8.13;;;2.58;;
61336;SDS011;47212;41.326;2.104;2023-05-10T14:20:36;18.85;;;3.90;;
61336;SDS011;47212;41.326;2.104;2023-05-10T14:25:40;13.73;;;3.25;;
61336;SDS011;47212;41.326;2.104;2023-05-10T14:30:42;20.20;;;4.50;;
61336;SDS011;47212;41.326;2.104;2023-05-10T14:35:44;17.02;;;4.20;;
61336;SDS011;47212;41.326;2.104;2023-05-10T14:40:48;14.30;;;3.70;;
61336;SDS011;47212;41.326;2.104;2023-05-10T14:45:52;12.82;;;3.35;;
61336;SDS011;47212;41.326;2.104;2023-05-10T14:50:55;22.08;;;3.65;;
61336;SDS011;47212;41.326;2.104;2023-05-10T14:55:57;12.82;;;3.20;;
61336;SDS011;47212;41.326;2.104;2023-05-10T15:01:01;15.27;;;3.60;;
61336;SDS011;47212;41.326;2.104;2023-05-10T15:06:04;16.60;;;3.92;;
61336;SDS011;47212;41.326;2.104;2023-05-10T15:11:07;17.42;;;3.40;;
61336;SDS011;47212;41.326;2.104;2023-05-10T15:16:09;13.75;;;3.65;;
61336;SDS011;47212;41.326;2.104;2023-05-10T15:22:44;8.65;;;3.10;;
61336;SDS011;47212;41.326;2.104;2023-05-10T15:27:47;12.48;;;2.78;;
61336;SDS011;47212;41.326;2.104;2023-05-10T15:32:49;23.55;;;12.90;;
61336;SDS011;47212;41.326;2.104;2023-05-10T15:37:51;18.23;;;4.03;;
61336;SDS011;47212;41.326;2.104;2023-05-10T15:42:54;12.75;;;3.28;;
61336;SDS011;47212;41.326;2.104;2023-05-10T15:47:56;23.70;;;13.30;;
61336;SDS011;47212;41.326;2.104;2023-05-10T15:52:59;16.90;;;4.32;;
61336;SDS011;47212;41.326;2.104;2023-05-10T15:58:02;10.00;;;3.05;;
61336;SDS011;47212;41.326;2.104;2023-05-10T16:03:06;11.70;;;2.72;;
61336;SDS011;47212;41.326;2.104;2023-05-10T16:08:08;11.68;;;3.28;;
61336;SDS011;47212;41.326;2.104;2023-05-10T16:13:11;9.52;;;3.22;;
61336;SDS011;47212;41.326;2.104;2023-05-10T16:18:12;13.57;;;3.78;;
61336;SDS011;47212;41.326;2.104;2023-05-10T16:23:15;9.93;;;2.72;;
61336;SDS011;47212;41.326;2.104;2023-05-10T16:28:18;9.70;;;2.85;;
61336;SDS011;47212;41.326;2.104;2023-05-10T16:33:21;9.73;;;2.78;;
61336;SDS011;47212;41.326;2.104;2023-05-10T16:38:25;12.38;;;3.08;;
61336;SDS011;47212;41.326;2.104;2023-05-10T16:43:27;7.40;;;2.72;;
61336;SDS011;47212;41.326;2.104;2023-05-10T16:48:29;11.80;;;2.95;;
61336;SDS011;47212;41.326;2.104;2023-05-10T16:53:31;9.93;;;2.70;;
61336;SDS011;47212;41.326;2.104;2023-05-10T16:58:42;14.53;;;3.23;;
61336;SDS011;47212;41.326;2.104;2023-05-10T17:03:44;10.35;;;2.90;;
61336;SDS011;47212;41.326;2.104;2023-05-10T17:08:47;13.77;;;3.10;;
61336;SDS011;47212;41.326;2.104;2023-05-10T17:13:49;10.35;;;2.63;;
61336;SDS011;47212;41.326;2.104;2023-05-10T17:18:52;11.93;;;3.28;;
61336;SDS011;47212;41.326;2.104;2023-05-10T17:23:54;12.50;;;3.92;;
61336;SDS011;47212;41.326;2.104;2023-05-10T17:28:57;18.08;;;3.75;;
61336;SDS011;47212;41.326;2.104;2023-05-10T17:33:59;14.18;;;3.13;;
61336;SDS011;47212;41.326;2.104;2023-05-10T17:39:04;22.60;;;4.25;;
61336;SDS011;47212;41.326;2.104;2023-05-10T17:44:06;13.18;;;3.42;;
61336;SDS011;47212;41.326;2.104;2023-05-10T17:49:08;9.25;;;2.97;;
61336;SDS011;47212;41.326;2.104;2023-05-10T17:54:11;15.43;;;3.50;;
61336;SDS011;47212;41.326;2.104;2023-05-10T17:59:13;19.13;;;3.42;;
61336;SDS011;47212;41.326;2.104;2023-05-10T18:04:15;13.25;;;3.40;;
61336;SDS011;47212;41.326;2.104;2023-05-10T18:09:17;10.85;;;3.03;;
61336;SDS011;47212;41.326;2.104;2023-05-10T18:14:21;10.27;;;3.30;;
61336;SDS011;47212;41.326;2.104;2023-05-10T18:19:40;13.00;;;4.07;;
61336;SDS011;47212;41.326;2.104;2023-05-10T18:24:43;14.93;;;3.70;;
61336;SDS011;47212;41.326;2.104;2023-05-10T18:29:45;12.15;;;3.20;;
61336;SDS011;47212;41.326;2.104;2023-05-10T18:34:47;11.95;;;2.67;;
61336;SDS011;47212;41.326;2.104;2023-05-10T18:39:50;12.57;;;3.75;;
61336;SDS011;47212;41.326;2.104;2023-05-10T18:44:53;16.95;;;3.10;;
61336;SDS011;47212;41.326;2.104;2023-05-10T18:49:55;13.85;;;3.83;;
61336;SDS011;47212;41.326;2.104;2023-05-10T18:54:57;14.02;;;3.60;;
61336;SDS011;47212;41.326;2.104;2023-05-10T18:59:59;17.67;;;3.92;;
61336;SDS011;47212;41.326;2.104;2023-05-10T19:05:01;9.88;;;3.53;;
61336;SDS011;47212;41.326;2.104;2023-05-10T19:10:05;14.52;;;3.72;;
61336;SDS011;47212;41.326;2.104;2023-05-10T19:15:08;12.40;;;2.70;;
61336;SDS011;47212;41.326;2.104;2023-05-10T19:20:10;9.02;;;2.90;;
61336;SDS011;47212;41.326;2.104;2023-05-10T19:25:12;9.38;;;2.90;;
61336;SDS011;47212;41.326;2.104;2023-05-10T19:30:17;12.45;;;3.05;;
61336;SDS011;47212;41.326;2.104;2023-05-10T19:35:19;10.13;;;2.33;;
61336;SDS011;47212;41.326;2.104;2023-05-10T19:43:16;6.83;;;2.57;;
61336;SDS011;47212;41.326;2.104;2023-05-10T19:48:22;10.25;;;2.95;;
61336;SDS011;47212;41.326;2.104;2023-05-10T19:53:24;11.60;;;2.85;;
61336;SDS011;47212;41.326;2.104;2023-05-10T19:58:26;8.63;;;2.55;;
61336;SDS011;47212;41.326;2.104;2023-05-10T20:03:29;6.82;;;2.45;;
61336;SDS011;47212;41.326;2.104;2023-05-10T20:08:31;17.42;;;4.35;;
61336;SDS011;47212;41.326;2.104;2023-05-10T20:13:35;9.68;;;2.60;;
61336;SDS011;47212;41.326;2.104;2023-05-10T20:22:45;12.27;;;3.22;;
61336;SDS011;47212;41.326;2.104;2023-05-10T20:27:53;11.48;;;2.88;;
61336;SDS011;47212;41.326;2.104;2023-05-10T20:33:06;8.43;;;3.13;;
61336;SDS011;47212;41.326;2.104;2023-05-10T20:38:09;9.32;;;3.03;;
61336;SDS011;47212;41.326;2.104;2023-05-10T20:48:14;10.18;;;2.85;;
61336;SDS011;47212;41.326;2.104;2023-05-10T20:53:16;15.60;;;3.55;;
61336;SDS011;47212;41.326;2.104;2023-05-10T20:58:26;8.70;;;2.70;;
61336;SDS011;47212;41.326;2.104;2023-05-10T21:03:28;12.73;;;2.92;;
61336;SDS011;47212;41.326;2.104;2023-05-10T21:08:30;11.25;;;3.08;;
61336;SDS011;47212;41.326;2.104;2023-05-10T21:18:37;8.68;;;2.53;;
61336;SDS011;47212;41.326;2.104;2023-05-10T21:23:41;13.95;;;3.72;;
61336;SDS011;47212;41.326;2.104;2023-05-10T21:28:46;15.98;;;4.00;;
61336;SDS011;47212;41.326;2.104;2023-05-10T21:33:49;21.33;;;3.85;;
61336;SDS011;47212;41.326;2.104;2023-05-10T21:38:51;11.55;;;2.90;;
61336;SDS011;47212;41.326;2.104;2023-05-10T21:43:53;9.60;;;2.45;;
61336;SDS011;47212;41.326;2.104;2023-05-10T21:48:55;10.00;;;3.22;;
61336;SDS011;47212;41.326;2.104;2023-05-10T21:53:57;12.10;;;3.28;;
61336;SDS011;47212;41.326;2.104;2023-05-10T21:59:00;10.20;;;3.10;;
61336;SDS011;47212;41.326;2.104;2023-05-10T22:04:05;13.18;;;3.10;;
61336;SDS011;47212;41.326;2.104;2023-05-10T22:09:07;10.98;;;2.72;;
61336;SDS011;47212;41.326;2.104;2023-05-10T22:14:10;10.30;;;3.25;;
61336;SDS011;47212;41.326;2.104;2023-05-10T22:35:14;10.68;;;2.75;;
61336;SDS011;47212;41.326;2.104;2023-05-10T22:46:15;8.05;;;2.83;;
61336;SDS011;47212;41.326;2.104;2023-05-10T22:51:17;13.25;;;3.08;;
61336;SDS011;47212;41.326;2.104;2023-05-10T22:56:20;12.52;;;2.70;;
61336;SDS011;47212;41.326;2.104;2023-05-10T23:01:23;9.30;;;3.47;;
61336;SDS011;47212;41.326;2.104;2023-05-10T23:06:25;7.43;;;2.63;;
61336;SDS011;47212;41.326;2.104;2023-05-10T23:11:28;9.75;;;2.30;;
61336;SDS011;47212;41.326;2.104;2023-05-10T23:16:30;12.65;;;2.58;;
61336;SDS011;47212;41.326;2.104;2023-05-10T23:21:32;9.02;;;2.67;;
61336;SDS011;47212;41.326;2.104;2023-05-10T23:26:35;9.73;;;2.88;;
61336;SDS011;47212;41.326;2.104;2023-05-10T23:31:37;16.55;;;2.95;;
61336;SDS011;47212;41.326;2.104;2023-05-10T23:36:41;7.50;;;2.65;;
61336;SDS011;47212;41.326;2.104;2023-05-10T23:41:44;6.90;;;2.20;;
61336;SDS011;47212;41.326;2.104;2023-05-10T23:46:47;5.80;;;2.05;;
61336;SDS011;47212;41.326;2.104;2023-05-10T23:51:49;8.35;;;2.50;;
61336;SDS011;47212;41.326;2.104;2023-05-10T23:56:51;11.00;;;2.45;;
